sensor_id;sensor_type;location;lat;lon;timestamp;P1;durP1;ratioP1;P2;durP2;ratioP2
21587;SDS011;10956;48.878;13.316;2022-09-09T00:00:29;3.73;;;3.40;;
21587;SDS011;10956;48.878;13.316;2022-09-09T00:03:43;2.80;;;2.60;;
21587;SDS011;10956;48.878;13.316;2022-09-09T00:06:12;3.43;;;2.60;;
21587;SDS011;10956;48.878;13.316;2022-09-09T00:09:04;3.40;;;3.10;;
21587;SDS011;10956;48.878;13.316;2022-09-09T00:15:02;3.70;;;3.40;;
21587;SDS011;10956;48.878;13.316;2022-09-09T00:17:16;3.80;;;3.50;;
21587;SDS011;10956;48.878;13.316;2022-09-09T00:22:24;3.80;;;3.50;;
21587;SDS011;10956;48.878;13.316;2022-09-09T00:24:53;4.00;;;3.70;;
21587;SDS011;10956;48.878;13.316;2022-09-09T00:30:18;3.70;;;3.40;;
21587;SDS011;10956;48.878;13.316;2022-09-09T00:32:47;2.90;;;2.70;;
21587;SDS011;10956;48.878;13.316;2022-09-09T00:38:20;3.00;;;2.70;;
21587;SDS011;10956;48.878;13.316;2022-09-09T00:40:52;4.13;;;2.87;;
21587;SDS011;10956;48.878;13.316;2022-09-09T00:48:50;4.60;;;3.40;;
21587;SDS011;10956;48.878;13.316;2022-09-09T00:57:22;3.47;;;3.17;;
21587;SDS011;10956;48.878;13.316;2022-09-09T01:00:16;2.70;;;2.50;;
21587;SDS011;10956;48.878;13.316;2022-09-09T01:02:55;2.60;;;2.40;;
21587;SDS011;10956;48.878;13.316;2022-09-09T01:11:01;1.80;;;1.70;;
21587;SDS011;10956;48.878;13.316;2022-09-09T01:13:31;1.87;;;1.77;;
21587;SDS011;10956;48.878;13.316;2022-09-09T01:16:02;2.93;;;2.73;;
21587;SDS011;10956;48.878;13.316;2022-09-09T01:18:32;3.30;;;3.00;;
21587;SDS011;10956;48.878;13.316;2022-09-09T01:26:38;2.70;;;2.50;;
21587;SDS011;10956;48.878;13.316;2022-09-09T01:29:10;2.80;;;2.60;;
21587;SDS011;10956;48.878;13.316;2022-09-09T01:34:19;1.80;;;1.70;;
21587;SDS011;10956;48.878;13.316;2022-09-09T01:36:47;1.70;;;1.60;;
21587;SDS011;10956;48.878;13.316;2022-09-09T01:39:21;1.90;;;1.80;;
21587;SDS011;10956;48.878;13.316;2022-09-09T01:41:46;2.90;;;1.60;;
21587;SDS011;10956;48.878;13.316;2022-09-09T01:44:12;1.80;;;1.70;;
21587;SDS011;10956;48.878;13.316;2022-09-09T01:46:38;2.23;;;2.03;;
21587;SDS011;10956;48.878;13.316;2022-09-09T01:49:05;1.93;;;1.83;;
21587;SDS011;10956;48.878;13.316;2022-09-09T01:51:32;2.80;;;2.50;;
21587;SDS011;10956;48.878;13.316;2022-09-09T01:53:59;2.37;;;2.17;;
21587;SDS011;10956;48.878;13.316;2022-09-09T02:04:40;2.23;;;1.97;;
21587;SDS011;10956;48.878;13.316;2022-09-09T02:07:15;2.10;;;2.00;;
21587;SDS011;10956;48.878;13.316;2022-09-09T02:10:03;1.90;;;1.80;;
21587;SDS011;10956;48.878;13.316;2022-09-09T02:12:44;1.50;;;1.40;;
21587;SDS011;10956;48.878;13.316;2022-09-09T02:15:17;1.70;;;1.60;;
21587;SDS011;10956;48.878;13.316;2022-09-09T02:17:48;1.30;;;1.20;;
21587;SDS011;10956;48.878;13.316;2022-09-09T02:20:17;2.10;;;1.90;;
21587;SDS011;10956;48.878;13.316;2022-09-09T02:22:44;1.70;;;1.60;;
21587;SDS011;10956;48.878;13.316;2022-09-09T02:25:14;1.80;;;1.70;;
21587;SDS011;10956;48.878;13.316;2022-09-09T02:27:43;1.73;;;1.63;;
21587;SDS011;10956;48.878;13.316;2022-09-09T02:30:11;1.73;;;1.63;;
21587;SDS011;10956;48.878;13.316;2022-09-09T02:32:37;1.60;;;1.50;;
21587;SDS011;10956;48.878;13.316;2022-09-09T02:35:09;1.83;;;1.73;;
21587;SDS011;10956;48.878;13.316;2022-09-09T02:37:39;2.13;;;1.93;;
21587;SDS011;10956;48.878;13.316;2022-09-09T02:40:07;2.43;;;2.23;;
21587;SDS011;10956;48.878;13.316;2022-09-09T02:42:38;2.00;;;1.90;;
21587;SDS011;10956;48.878;13.316;2022-09-09T02:45:09;2.17;;;1.97;;
21587;SDS011;10956;48.878;13.316;2022-09-09T02:47:39;1.90;;;1.70;;
21587;SDS011;10956;48.878;13.316;2022-09-09T02:50:23;1.60;;;1.50;;
21587;SDS011;10956;48.878;13.316;2022-09-09T02:53:00;1.50;;;1.40;;
21587;SDS011;10956;48.878;13.316;2022-09-09T02:55:39;2.27;;;1.80;;
21587;SDS011;10956;48.878;13.316;2022-09-09T02:58:11;2.03;;;1.60;;
21587;SDS011;10956;48.878;13.316;2022-09-09T03:00:42;4.00;;;2.00;;
21587;SDS011;10956;48.878;13.316;2022-09-09T03:03:10;1.40;;;1.30;;
21587;SDS011;10956;48.878;13.316;2022-09-09T03:05:35;1.63;;;1.53;;
21587;SDS011;10956;48.878;13.316;2022-09-09T03:08:02;1.83;;;1.50;;
21587;SDS011;10956;48.878;13.316;2022-09-09T03:10:28;2.03;;;1.90;;
21587;SDS011;10956;48.878;13.316;2022-09-09T03:12:53;1.97;;;1.87;;
21587;SDS011;10956;48.878;13.316;2022-09-09T03:15:20;1.90;;;1.80;;
21587;SDS011;10956;48.878;13.316;2022-09-09T03:17:46;2.10;;;1.90;;
21587;SDS011;10956;48.878;13.316;2022-09-09T03:20:12;1.73;;;1.63;;
21587;SDS011;10956;48.878;13.316;2022-09-09T03:22:38;2.20;;;2.00;;
21587;SDS011;10956;48.878;13.316;2022-09-09T03:25:03;2.27;;;1.90;;
21587;SDS011;10956;48.878;13.316;2022-09-09T03:27:30;1.50;;;1.40;;
21587;SDS011;10956;48.878;13.316;2022-09-09T03:29:56;2.00;;;1.80;;
21587;SDS011;10956;48.878;13.316;2022-09-09T03:32:22;1.60;;;1.50;;
21587;SDS011;10956;48.878;13.316;2022-09-09T03:34:50;1.93;;;1.70;;
21587;SDS011;10956;48.878;13.316;2022-09-09T03:37:17;1.57;;;1.47;;
21587;SDS011;10956;48.878;13.316;2022-09-09T03:39:43;1.50;;;1.40;;
21587;SDS011;10956;48.878;13.316;2022-09-09T03:42:08;1.57;;;1.40;;
21587;SDS011;10956;48.878;13.316;2022-09-09T03:44:34;1.73;;;1.63;;
21587;SDS011;10956;48.878;13.316;2022-09-09T03:46:59;1.80;;;1.70;;
21587;SDS011;10956;48.878;13.316;2022-09-09T03:49:27;1.77;;;1.60;;
21587;SDS011;10956;48.878;13.316;2022-09-09T03:51:56;1.50;;;1.40;;
21587;SDS011;10956;48.878;13.316;2022-09-09T03:54:23;1.40;;;1.30;;
21587;SDS011;10956;48.878;13.316;2022-09-09T03:56:49;1.70;;;1.60;;
21587;SDS011;10956;48.878;13.316;2022-09-09T03:59:14;1.53;;;1.43;;
21587;SDS011;10956;48.878;13.316;2022-09-09T04:01:39;1.70;;;1.60;;
21587;SDS011;10956;48.878;13.316;2022-09-09T04:04:05;1.33;;;1.23;;
21587;SDS011;10956;48.878;13.316;2022-09-09T04:06:30;1.47;;;1.37;;
21587;SDS011;10956;48.878;13.316;2022-09-09T04:08:56;2.10;;;1.90;;
21587;SDS011;10956;48.878;13.316;2022-09-09T04:11:21;2.47;;;1.40;;
21587;SDS011;10956;48.878;13.316;2022-09-09T04:13:46;2.63;;;1.70;;
21587;SDS011;10956;48.878;13.316;2022-09-09T04:16:12;1.60;;;1.50;;
21587;SDS011;10956;48.878;13.316;2022-09-09T04:18:38;1.47;;;1.37;;
21587;SDS011;10956;48.878;13.316;2022-09-09T04:21:04;1.33;;;1.23;;
21587;SDS011;10956;48.878;13.316;2022-09-09T04:23:31;1.40;;;1.30;;
21587;SDS011;10956;48.878;13.316;2022-09-09T04:25:58;1.77;;;1.67;;
21587;SDS011;10956;48.878;13.316;2022-09-09T04:28:25;1.50;;;1.40;;
21587;SDS011;10956;48.878;13.316;2022-09-09T04:30:52;2.67;;;1.60;;
21587;SDS011;10956;48.878;13.316;2022-09-09T04:33:18;1.70;;;1.60;;
21587;SDS011;10956;48.878;13.316;2022-09-09T04:35:44;1.30;;;1.20;;
21587;SDS011;10956;48.878;13.316;2022-09-09T04:38:12;1.50;;;1.40;;
21587;SDS011;10956;48.878;13.316;2022-09-09T04:40:37;1.47;;;1.33;;
21587;SDS011;10956;48.878;13.316;2022-09-09T04:43:07;1.30;;;1.20;;
21587;SDS011;10956;48.878;13.316;2022-09-09T04:45:33;1.30;;;1.20;;
21587;SDS011;10956;48.878;13.316;2022-09-09T04:47:59;1.30;;;1.20;;
21587;SDS011;10956;48.878;13.316;2022-09-09T04:50:25;1.30;;;1.20;;
21587;SDS011;10956;48.878;13.316;2022-09-09T04:52:50;1.27;;;1.17;;
21587;SDS011;10956;48.878;13.316;2022-09-09T04:55:16;1.30;;;1.20;;
21587;SDS011;10956;48.878;13.316;2022-09-09T04:57:41;1.20;;;1.10;;
21587;SDS011;10956;48.878;13.316;2022-09-09T05:00:07;1.17;;;1.07;;
21587;SDS011;10956;48.878;13.316;2022-09-09T05:02:33;1.40;;;1.30;;
21587;SDS011;10956;48.878;13.316;2022-09-09T05:05:02;1.47;;;1.20;;
21587;SDS011;10956;48.878;13.316;2022-09-09T05:07:28;1.30;;;1.20;;
21587;SDS011;10956;48.878;13.316;2022-09-09T05:09:54;1.20;;;1.10;;
21587;SDS011;10956;48.878;13.316;2022-09-09T05:12:19;1.27;;;1.17;;
21587;SDS011;10956;48.878;13.316;2022-09-09T05:14:44;1.23;;;1.13;;
21587;SDS011;10956;48.878;13.316;2022-09-09T05:17:10;1.00;;;1.00;;
21587;SDS011;10956;48.878;13.316;2022-09-09T05:19:36;1.03;;;1.03;;
21587;SDS011;10956;48.878;13.316;2022-09-09T05:22:02;1.30;;;1.20;;
21587;SDS011;10956;48.878;13.316;2022-09-09T05:24:28;1.23;;;1.13;;
21587;SDS011;10956;48.878;13.316;2022-09-09T05:26:53;1.20;;;1.10;;
21587;SDS011;10956;48.878;13.316;2022-09-09T05:29:19;1.00;;;1.00;;
21587;SDS011;10956;48.878;13.316;2022-09-09T05:31:45;1.00;;;1.00;;
21587;SDS011;10956;48.878;13.316;2022-09-09T05:34:12;1.37;;;1.10;;
21587;SDS011;10956;48.878;13.316;2022-09-09T05:36:37;1.20;;;1.10;;
21587;SDS011;10956;48.878;13.316;2022-09-09T05:39:03;1.03;;;1.03;;
21587;SDS011;10956;48.878;13.316;2022-09-09T05:41:29;1.27;;;1.17;;
21587;SDS011;10956;48.878;13.316;2022-09-09T05:43:55;1.40;;;1.30;;
21587;SDS011;10956;48.878;13.316;2022-09-09T05:46:21;1.70;;;1.60;;
21587;SDS011;10956;48.878;13.316;2022-09-09T05:48:49;2.27;;;1.50;;
21587;SDS011;10956;48.878;13.316;2022-09-09T05:51:20;1.50;;;1.40;;
21587;SDS011;10956;48.878;13.316;2022-09-09T05:53:47;0.93;;;0.93;;
21587;SDS011;10956;48.878;13.316;2022-09-09T05:56:14;1.37;;;1.20;;
21587;SDS011;10956;48.878;13.316;2022-09-09T05:58:41;1.30;;;1.20;;
21587;SDS011;10956;48.878;13.316;2022-09-09T06:01:16;1.10;;;1.03;;
21587;SDS011;10956;48.878;13.316;2022-09-09T06:03:43;1.00;;;0.90;;
21587;SDS011;10956;48.878;13.316;2022-09-09T06:06:11;1.00;;;1.00;;
21587;SDS011;10956;48.878;13.316;2022-09-09T06:08:39;0.70;;;0.70;;
21587;SDS011;10956;48.878;13.316;2022-09-09T06:11:11;0.73;;;0.73;;
21587;SDS011;10956;48.878;13.316;2022-09-09T06:13:41;1.47;;;0.80;;
21587;SDS011;10956;48.878;13.316;2022-09-09T06:16:11;0.90;;;0.90;;
21587;SDS011;10956;48.878;13.316;2022-09-09T06:18:38;1.20;;;1.10;;
21587;SDS011;10956;48.878;13.316;2022-09-09T06:21:05;0.87;;;0.87;;
21587;SDS011;10956;48.878;13.316;2022-09-09T06:23:34;0.80;;;0.80;;
21587;SDS011;10956;48.878;13.316;2022-09-09T06:26:04;1.20;;;0.90;;
21587;SDS011;10956;48.878;13.316;2022-09-09T06:28:31;1.63;;;1.50;;
21587;SDS011;10956;48.878;13.316;2022-09-09T06:31:00;1.70;;;1.27;;
21587;SDS011;10956;48.878;13.316;2022-09-09T06:33:30;1.23;;;1.07;;
21587;SDS011;10956;48.878;13.316;2022-09-09T06:35:57;0.80;;;0.80;;
21587;SDS011;10956;48.878;13.316;2022-09-09T06:38:23;1.00;;;1.00;;
21587;SDS011;10956;48.878;13.316;2022-09-09T06:40:55;1.00;;;1.00;;
21587;SDS011;10956;48.878;13.316;2022-09-09T06:43:23;1.27;;;1.17;;
21587;SDS011;10956;48.878;13.316;2022-09-09T06:45:52;0.90;;;0.90;;
21587;SDS011;10956;48.878;13.316;2022-09-09T06:48:21;0.97;;;0.97;;
21587;SDS011;10956;48.878;13.316;2022-09-09T06:50:47;0.90;;;0.90;;
21587;SDS011;10956;48.878;13.316;2022-09-09T06:53:17;1.83;;;1.17;;
21587;SDS011;10956;48.878;13.316;2022-09-09T06:55:44;1.20;;;1.10;;
21587;SDS011;10956;48.878;13.316;2022-09-09T06:58:10;1.00;;;0.90;;
21587;SDS011;10956;48.878;13.316;2022-09-09T07:00:36;1.00;;;1.00;;
21587;SDS011;10956;48.878;13.316;2022-09-09T07:03:03;1.40;;;1.30;;
21587;SDS011;10956;48.878;13.316;2022-09-09T07:05:29;1.10;;;1.00;;
21587;SDS011;10956;48.878;13.316;2022-09-09T07:07:54;1.57;;;1.47;;
21587;SDS011;10956;48.878;13.316;2022-09-09T07:10:20;1.50;;;1.40;;
21587;SDS011;10956;48.878;13.316;2022-09-09T07:12:49;1.73;;;1.23;;
21587;SDS011;10956;48.878;13.316;2022-09-09T07:15:17;1.53;;;1.10;;
21587;SDS011;10956;48.878;13.316;2022-09-09T07:17:43;1.60;;;1.00;;
21587;SDS011;10956;48.878;13.316;2022-09-09T07:20:09;0.77;;;0.77;;
21587;SDS011;10956;48.878;13.316;2022-09-09T07:22:35;1.77;;;1.50;;
21587;SDS011;10956;48.878;13.316;2022-09-09T07:25:01;1.23;;;1.20;;
21587;SDS011;10956;48.878;13.316;2022-09-09T07:27:27;1.27;;;1.17;;
21587;SDS011;10956;48.878;13.316;2022-09-09T07:29:52;1.40;;;1.30;;
21587;SDS011;10956;48.878;13.316;2022-09-09T07:32:19;2.90;;;1.20;;
21587;SDS011;10956;48.878;13.316;2022-09-09T07:34:45;1.50;;;1.40;;
21587;SDS011;10956;48.878;13.316;2022-09-09T07:37:12;1.50;;;1.40;;
21587;SDS011;10956;48.878;13.316;2022-09-09T07:39:38;1.37;;;1.10;;
21587;SDS011;10956;48.878;13.316;2022-09-09T07:42:04;1.00;;;0.90;;
21587;SDS011;10956;48.878;13.316;2022-09-09T07:44:30;0.80;;;0.80;;
21587;SDS011;10956;48.878;13.316;2022-09-09T07:46:59;1.27;;;0.90;;
21587;SDS011;10956;48.878;13.316;2022-09-09T07:49:25;1.17;;;1.07;;
21587;SDS011;10956;48.878;13.316;2022-09-09T07:51:50;1.40;;;1.30;;
21587;SDS011;10956;48.878;13.316;2022-09-09T07:54:17;1.10;;;1.10;;
21587;SDS011;10956;48.878;13.316;2022-09-09T07:56:48;0.87;;;0.80;;
21587;SDS011;10956;48.878;13.316;2022-09-09T07:59:15;0.93;;;0.90;;
21587;SDS011;10956;48.878;13.316;2022-09-09T08:01:45;1.60;;;1.20;;
21587;SDS011;10956;48.878;13.316;2022-09-09T08:04:13;1.00;;;1.00;;
21587;SDS011;10956;48.878;13.316;2022-09-09T08:06:51;1.07;;;0.90;;
21587;SDS011;10956;48.878;13.316;2022-09-09T08:09:19;0.90;;;0.90;;
21587;SDS011;10956;48.878;13.316;2022-09-09T08:11:46;1.30;;;1.10;;
21587;SDS011;10956;48.878;13.316;2022-09-09T08:14:12;0.90;;;0.90;;
21587;SDS011;10956;48.878;13.316;2022-09-09T08:16:42;1.33;;;1.23;;
21587;SDS011;10956;48.878;13.316;2022-09-09T08:19:10;1.10;;;1.00;;
21587;SDS011;10956;48.878;13.316;2022-09-09T08:21:37;0.90;;;0.90;;
21587;SDS011;10956;48.878;13.316;2022-09-09T08:24:05;1.63;;;1.10;;
21587;SDS011;10956;48.878;13.316;2022-09-09T08:26:36;1.33;;;1.03;;
21587;SDS011;10956;48.878;13.316;2022-09-09T08:29:04;1.40;;;1.30;;
21587;SDS011;10956;48.878;13.316;2022-09-09T08:31:35;2.67;;;1.23;;
21587;SDS011;10956;48.878;13.316;2022-09-09T08:34:03;1.20;;;1.10;;
21587;SDS011;10956;48.878;13.316;2022-09-09T08:36:32;1.10;;;1.00;;
21587;SDS011;10956;48.878;13.316;2022-09-09T08:39:00;1.23;;;1.13;;
21587;SDS011;10956;48.878;13.316;2022-09-09T08:52:03;0.90;;;0.90;;
21587;SDS011;10956;48.878;13.316;2022-09-09T08:54:38;1.43;;;1.33;;
21587;SDS011;10956;48.878;13.316;2022-09-09T08:57:05;4.10;;;3.80;;
21587;SDS011;10956;48.878;13.316;2022-09-09T08:59:39;2.80;;;2.60;;
21587;SDS011;10956;48.878;13.316;2022-09-09T09:02:21;2.53;;;2.33;;
21587;SDS011;10956;48.878;13.316;2022-09-09T09:04:56;1.93;;;1.83;;
21587;SDS011;10956;48.878;13.316;2022-09-09T09:07:47;2.07;;;1.97;;
21587;SDS011;10956;48.878;13.316;2022-09-09T09:10:39;1.43;;;1.33;;
21587;SDS011;10956;48.878;13.316;2022-09-09T09:13:17;1.60;;;1.50;;
21587;SDS011;10956;48.878;13.316;2022-09-09T09:18:57;1.67;;;1.57;;
21587;SDS011;10956;48.878;13.316;2022-09-09T09:24:28;1.20;;;1.10;;
21587;SDS011;10956;48.878;13.316;2022-09-09T09:27:12;1.10;;;1.00;;
21587;SDS011;10956;48.878;13.316;2022-09-09T09:29:39;2.20;;;1.43;;
21587;SDS011;10956;48.878;13.316;2022-09-09T09:32:09;1.40;;;1.30;;
21587;SDS011;10956;48.878;13.316;2022-09-09T09:34:41;1.40;;;1.30;;
21587;SDS011;10956;48.878;13.316;2022-09-09T09:37:12;1.40;;;1.30;;
21587;SDS011;10956;48.878;13.316;2022-09-09T09:39:45;1.20;;;1.10;;
21587;SDS011;10956;48.878;13.316;2022-09-09T09:42:11;1.00;;;1.00;;
21587;SDS011;10956;48.878;13.316;2022-09-09T09:44:39;2.20;;;0.80;;
21587;SDS011;10956;48.878;13.316;2022-09-09T09:47:12;1.13;;;1.00;;
21587;SDS011;10956;48.878;13.316;2022-09-09T09:49:39;1.30;;;1.20;;
21587;SDS011;10956;48.878;13.316;2022-09-09T09:52:17;4.00;;;2.87;;
21587;SDS011;10956;48.878;13.316;2022-09-09T09:54:47;11.67;;;6.40;;
21587;SDS011;10956;48.878;13.316;2022-09-09T09:57:14;26.23;;;15.30;;
21587;SDS011;10956;48.878;13.316;2022-09-09T09:59:41;14.63;;;9.87;;
21587;SDS011;10956;48.878;13.316;2022-09-09T10:04:44;23.47;;;13.13;;
21587;SDS011;10956;48.878;13.316;2022-09-09T10:07:21;40.43;;;22.27;;
21587;SDS011;10956;48.878;13.316;2022-09-09T10:09:54;38.70;;;21.70;;
21587;SDS011;10956;48.878;13.316;2022-09-09T10:18:08;20.53;;;13.43;;
21587;SDS011;10956;48.878;13.316;2022-09-09T10:37:11;7.33;;;4.90;;
21587;SDS011;10956;48.878;13.316;2022-09-09T10:40:08;8.87;;;5.60;;
21587;SDS011;10956;48.878;13.316;2022-09-09T10:42:51;10.07;;;6.40;;
21587;SDS011;10956;48.878;13.316;2022-09-09T10:45:26;13.30;;;8.90;;
21587;SDS011;10956;48.878;13.316;2022-09-09T10:53:57;2.90;;;2.67;;
21587;SDS011;10956;48.878;13.316;2022-09-09T10:56:48;4.77;;;4.37;;
21587;SDS011;10956;48.878;13.316;2022-09-09T10:59:22;2.43;;;2.00;;
21587;SDS011;10956;48.878;13.316;2022-09-09T11:07:28;1.47;;;1.37;;
21587;SDS011;10956;48.878;13.316;2022-09-09T11:10:02;1.40;;;1.30;;
21587;SDS011;10956;48.878;13.316;2022-09-09T11:12:37;2.30;;;1.20;;
21587;SDS011;10956;48.878;13.316;2022-09-09T11:15:17;1.37;;;1.27;;
21587;SDS011;10956;48.878;13.316;2022-09-09T11:17:55;1.47;;;1.37;;
21587;SDS011;10956;48.878;13.316;2022-09-09T11:20:23;1.20;;;1.10;;
21587;SDS011;10956;48.878;13.316;2022-09-09T11:25:40;5.70;;;5.20;;
21587;SDS011;10956;48.878;13.316;2022-09-09T11:28:26;4.27;;;3.87;;
21587;SDS011;10956;48.878;13.316;2022-09-09T11:34:06;8.50;;;6.70;;
21587;SDS011;10956;48.878;13.316;2022-09-09T11:41:49;6.37;;;5.43;;
21587;SDS011;10956;48.878;13.316;2022-09-09T11:44:19;4.13;;;3.37;;
21587;SDS011;10956;48.878;13.316;2022-09-09T11:46:53;2.17;;;1.60;;
21587;SDS011;10956;48.878;13.316;2022-09-09T11:55:08;5.70;;;4.40;;
21587;SDS011;10956;48.878;13.316;2022-09-09T11:57:37;8.00;;;5.70;;
21587;SDS011;10956;48.878;13.316;2022-09-09T12:00:04;5.60;;;4.70;;
21587;SDS011;10956;48.878;13.316;2022-09-09T12:02:30;4.03;;;3.33;;
21587;SDS011;10956;48.878;13.316;2022-09-09T12:05:07;2.80;;;2.33;;
21587;SDS011;10956;48.878;13.316;2022-09-09T12:07:38;10.40;;;7.90;;
21587;SDS011;10956;48.878;13.316;2022-09-09T12:10:26;6.67;;;5.47;;
21587;SDS011;10956;48.878;13.316;2022-09-09T12:12:54;3.60;;;3.10;;
21587;SDS011;10956;48.878;13.316;2022-09-09T12:17:49;1.53;;;1.40;;
21587;SDS011;10956;48.878;13.316;2022-09-09T12:31:14;1.27;;;1.17;;
21587;SDS011;10956;48.878;13.316;2022-09-09T12:33:48;1.57;;;1.47;;
21587;SDS011;10956;48.878;13.316;2022-09-09T12:36:31;2.33;;;1.30;;
21587;SDS011;10956;48.878;13.316;2022-09-09T12:38:59;1.27;;;1.17;;
21587;SDS011;10956;48.878;13.316;2022-09-09T12:41:40;1.03;;;0.90;;
21587;SDS011;10956;48.878;13.316;2022-09-09T12:44:08;0.77;;;0.77;;
21587;SDS011;10956;48.878;13.316;2022-09-09T12:46:41;1.10;;;1.10;;
21587;SDS011;10956;48.878;13.316;2022-09-09T12:49:29;1.00;;;0.90;;
21587;SDS011;10956;48.878;13.316;2022-09-09T12:52:04;1.10;;;0.80;;
21587;SDS011;10956;48.878;13.316;2022-09-09T12:54:35;1.47;;;1.00;;
21587;SDS011;10956;48.878;13.316;2022-09-09T12:57:02;1.27;;;1.00;;
21587;SDS011;10956;48.878;13.316;2022-09-09T12:59:38;1.13;;;1.03;;
21587;SDS011;10956;48.878;13.316;2022-09-09T13:02:15;0.90;;;0.90;;
21587;SDS011;10956;48.878;13.316;2022-09-09T13:04:44;1.30;;;1.20;;
21587;SDS011;10956;48.878;13.316;2022-09-09T13:07:12;3.50;;;2.20;;
21587;SDS011;10956;48.878;13.316;2022-09-09T13:09:38;1.57;;;1.47;;
21587;SDS011;10956;48.878;13.316;2022-09-09T13:12:04;3.07;;;1.37;;
21587;SDS011;10956;48.878;13.316;2022-09-09T13:14:37;2.07;;;1.50;;
21587;SDS011;10956;48.878;13.316;2022-09-09T13:17:04;1.70;;;1.60;;
21587;SDS011;10956;48.878;13.316;2022-09-09T13:19:32;12.33;;;7.43;;
21587;SDS011;10956;48.878;13.316;2022-09-09T13:22:11;3.77;;;3.20;;
21587;SDS011;10956;48.878;13.316;2022-09-09T13:24:38;2.43;;;2.20;;
21587;SDS011;10956;48.878;13.316;2022-09-09T13:27:04;2.20;;;1.70;;
21587;SDS011;10956;48.878;13.316;2022-09-09T13:29:52;3.20;;;2.20;;
21587;SDS011;10956;48.878;13.316;2022-09-09T13:32:20;4.77;;;3.43;;
21587;SDS011;10956;48.878;13.316;2022-09-09T13:34:52;3.60;;;2.93;;
21587;SDS011;10956;48.878;13.316;2022-09-09T13:37:35;2.57;;;2.23;;
21587;SDS011;10956;48.878;13.316;2022-09-09T13:40:03;2.17;;;1.90;;
21587;SDS011;10956;48.878;13.316;2022-09-09T13:42:31;1.77;;;1.67;;
21587;SDS011;10956;48.878;13.316;2022-09-09T13:45:02;1.40;;;1.30;;
21587;SDS011;10956;48.878;13.316;2022-09-09T13:47:35;1.43;;;1.20;;
21587;SDS011;10956;48.878;13.316;2022-09-09T13:52:48;5.43;;;3.20;;
21587;SDS011;10956;48.878;13.316;2022-09-09T13:55:15;8.43;;;4.87;;
21587;SDS011;10956;48.878;13.316;2022-09-09T13:57:49;6.00;;;4.13;;
21587;SDS011;10956;48.878;13.316;2022-09-09T14:00:26;5.10;;;2.33;;
21587;SDS011;10956;48.878;13.316;2022-09-09T14:02:55;2.60;;;1.60;;
21587;SDS011;10956;48.878;13.316;2022-09-09T14:05:21;2.10;;;1.63;;
21587;SDS011;10956;48.878;13.316;2022-09-09T14:07:47;2.53;;;1.70;;
21587;SDS011;10956;48.878;13.316;2022-09-09T14:10:14;1.67;;;1.20;;
21587;SDS011;10956;48.878;13.316;2022-09-09T14:12:39;1.37;;;1.10;;
21587;SDS011;10956;48.878;13.316;2022-09-09T14:15:05;1.33;;;1.20;;
21587;SDS011;10956;48.878;13.316;2022-09-09T14:17:33;1.20;;;1.10;;
21587;SDS011;10956;48.878;13.316;2022-09-09T14:20:01;1.53;;;1.10;;
21587;SDS011;10956;48.878;13.316;2022-09-09T14:22:33;2.03;;;1.20;;
21587;SDS011;10956;48.878;13.316;2022-09-09T14:24:59;1.23;;;1.13;;
21587;SDS011;10956;48.878;13.316;2022-09-09T14:27:25;1.20;;;1.10;;
21587;SDS011;10956;48.878;13.316;2022-09-09T14:29:53;0.97;;;0.97;;
21587;SDS011;10956;48.878;13.316;2022-09-09T14:32:19;1.10;;;1.00;;
21587;SDS011;10956;48.878;13.316;2022-09-09T14:34:46;1.07;;;0.87;;
21587;SDS011;10956;48.878;13.316;2022-09-09T14:37:14;1.00;;;0.80;;
21587;SDS011;10956;48.878;13.316;2022-09-09T14:39:40;1.40;;;1.27;;
21587;SDS011;10956;48.878;13.316;2022-09-09T14:42:08;0.90;;;0.90;;
21587;SDS011;10956;48.878;13.316;2022-09-09T14:44:35;0.70;;;0.70;;
21587;SDS011;10956;48.878;13.316;2022-09-09T14:47:02;0.90;;;0.90;;
21587;SDS011;10956;48.878;13.316;2022-09-09T14:49:27;0.80;;;0.80;;
21587;SDS011;10956;48.878;13.316;2022-09-09T14:51:53;0.77;;;0.77;;
21587;SDS011;10956;48.878;13.316;2022-09-09T14:54:19;0.70;;;0.70;;
21587;SDS011;10956;48.878;13.316;2022-09-09T14:56:45;1.00;;;0.90;;
21587;SDS011;10956;48.878;13.316;2022-09-09T14:59:12;1.03;;;1.00;;
21587;SDS011;10956;48.878;13.316;2022-09-09T15:01:38;1.00;;;1.00;;
21587;SDS011;10956;48.878;13.316;2022-09-09T15:04:04;4.20;;;1.30;;
21587;SDS011;10956;48.878;13.316;2022-09-09T15:06:31;1.60;;;1.03;;
21587;SDS011;10956;48.878;13.316;2022-09-09T15:08:59;0.73;;;0.73;;
21587;SDS011;10956;48.878;13.316;2022-09-09T15:11:29;0.97;;;0.80;;
21587;SDS011;10956;48.878;13.316;2022-09-09T15:14:02;0.87;;;0.87;;
21587;SDS011;10956;48.878;13.316;2022-09-09T15:16:28;1.10;;;1.00;;
21587;SDS011;10956;48.878;13.316;2022-09-09T15:18:55;0.97;;;0.90;;
21587;SDS011;10956;48.878;13.316;2022-09-09T15:21:24;1.77;;;0.80;;
21587;SDS011;10956;48.878;13.316;2022-09-09T15:23:52;1.20;;;1.10;;
21587;SDS011;10956;48.878;13.316;2022-09-09T15:26:17;1.67;;;1.10;;
21587;SDS011;10956;48.878;13.316;2022-09-09T15:28:44;1.20;;;1.10;;
21587;SDS011;10956;48.878;13.316;2022-09-09T15:33:46;1.10;;;1.00;;
21587;SDS011;10956;48.878;13.316;2022-09-09T15:36:17;2.10;;;1.43;;
21587;SDS011;10956;48.878;13.316;2022-09-09T15:38:44;4.90;;;2.73;;
21587;SDS011;10956;48.878;13.316;2022-09-09T15:41:11;6.67;;;3.10;;
21587;SDS011;10956;48.878;13.316;2022-09-09T15:43:44;2.50;;;1.83;;
21587;SDS011;10956;48.878;13.316;2022-09-09T15:49:07;2.67;;;1.60;;
21587;SDS011;10956;48.878;13.316;2022-09-09T15:51:39;2.97;;;1.80;;
21587;SDS011;10956;48.878;13.316;2022-09-09T15:54:09;9.73;;;4.70;;
21587;SDS011;10956;48.878;13.316;2022-09-09T15:56:42;8.30;;;4.30;;
21587;SDS011;10956;48.878;13.316;2022-09-09T15:59:08;5.03;;;2.63;;
21587;SDS011;10956;48.878;13.316;2022-09-09T16:01:34;2.77;;;2.00;;
21587;SDS011;10956;48.878;13.316;2022-09-09T16:04:00;2.70;;;1.50;;
21587;SDS011;10956;48.878;13.316;2022-09-09T16:06:25;1.20;;;1.10;;
21587;SDS011;10956;48.878;13.316;2022-09-09T16:08:53;1.00;;;0.90;;
21587;SDS011;10956;48.878;13.316;2022-09-09T16:13:50;1.67;;;1.00;;
21587;SDS011;10956;48.878;13.316;2022-09-09T16:16:17;1.73;;;1.60;;
21587;SDS011;10956;48.878;13.316;2022-09-09T16:18:47;1.40;;;1.30;;
21587;SDS011;10956;48.878;13.316;2022-09-09T16:21:19;1.77;;;1.20;;
21587;SDS011;10956;48.878;13.316;2022-09-09T16:23:49;1.23;;;1.13;;
21587;SDS011;10956;48.878;13.316;2022-09-09T16:26:16;0.90;;;0.70;;
21587;SDS011;10956;48.878;13.316;2022-09-09T16:28:43;0.80;;;0.80;;
21587;SDS011;10956;48.878;13.316;2022-09-09T16:31:10;1.73;;;1.00;;
21587;SDS011;10956;48.878;13.316;2022-09-09T16:33:39;0.80;;;0.80;;
21587;SDS011;10956;48.878;13.316;2022-09-09T16:36:08;1.00;;;0.90;;
21587;SDS011;10956;48.878;13.316;2022-09-09T16:38:37;1.03;;;0.90;;
21587;SDS011;10956;48.878;13.316;2022-09-09T16:41:04;0.80;;;0.80;;
21587;SDS011;10956;48.878;13.316;2022-09-09T16:43:31;2.10;;;1.10;;
21587;SDS011;10956;48.878;13.316;2022-09-09T16:45:58;1.23;;;1.00;;
21587;SDS011;10956;48.878;13.316;2022-09-09T16:48:25;1.10;;;0.80;;
21587;SDS011;10956;48.878;13.316;2022-09-09T16:50:52;1.10;;;0.80;;
21587;SDS011;10956;48.878;13.316;2022-09-09T16:53:17;1.00;;;1.00;;
21587;SDS011;10956;48.878;13.316;2022-09-09T16:55:43;0.80;;;0.80;;
21587;SDS011;10956;48.878;13.316;2022-09-09T16:58:12;1.60;;;1.50;;
21587;SDS011;10956;48.878;13.316;2022-09-09T17:00:37;2.97;;;1.47;;
21587;SDS011;10956;48.878;13.316;2022-09-09T17:03:03;1.43;;;1.13;;
21587;SDS011;10956;48.878;13.316;2022-09-09T17:05:29;1.30;;;1.20;;